sensor_id;sensor_type;location;lat;lon;timestamp;pressure;altitude;pressure_sealevel;temperature;humidity
61554;BME280;47425;51.976;5.326;2022-07-23T08:02:45;101926.91;;;22.71;47.50
61554;BME280;47425;51.976;5.326;2022-07-23T08:05:12;101930.19;;;23.08;46.83
61554;BME280;47425;51.976;5.326;2022-07-23T08:07:38;101916.63;;;23.29;46.12
61554;BME280;47425;51.976;5.326;2022-07-23T08:10:08;101941.72;;;23.73;45.45
61554;BME280;47425;51.976;5.326;2022-07-23T08:12:55;101930.66;;;23.95;44.75
61554;BME280;47425;51.976;5.326;2022-07-23T08:15:26;101939.38;;;24.13;44.14
61554;BME280;47425;51.976;5.326;2022-07-23T08:17:52;101933.19;;;24.27;44.17
61554;BME280;47425;51.976;5.326;2022-07-23T08:20:19;101934.53;;;24.34;44.12
61554;BME280;47425;51.976;5.326;2022-07-23T08:22:54;101935.00;;;24.41;43.56
61554;BME280;47425;51.976;5.326;2022-07-23T08:25:26;101944.31;;;24.50;43.72
61554;BME280;47425;51.976;5.326;2022-07-23T08:27:54;101944.56;;;24.59;44.06
61554;BME280;47425;51.976;5.326;2022-07-23T08:30:20;101952.06;;;24.69;43.93
61554;BME280;47425;51.976;5.326;2022-07-23T08:33:08;101948.13;;;24.74;43.23
61554;BME280;47425;51.976;5.326;2022-07-23T08:35:40;101919.47;;;24.62;42.90
61554;BME280;47425;51.976;5.326;2022-07-23T08:38:08;101943.16;;;24.83;42.58
61554;BME280;47425;51.976;5.326;2022-07-23T08:40:37;101918.88;;;24.71;42.66
61554;BME280;47425;51.976;5.326;2022-07-23T08:43:08;101950.59;;;24.92;41.91
61554;BME280;47425;51.976;5.326;2022-07-23T08:45:42;101916.00;;;24.74;41.89
61554;BME280;47425;51.976;5.326;2022-07-23T08:48:29;101912.38;;;24.75;41.92
61554;BME280;47425;51.976;5.326;2022-07-23T08:50:59;101943.25;;;24.95;41.51
61554;BME280;47425;51.976;5.326;2022-07-23T08:53:26;101948.28;;;25.00;41.42
61554;BME280;47425;51.976;5.326;2022-07-23T08:55:56;101946.50;;;25.01;41.51
61554;BME280;47425;51.976;5.326;2022-07-23T08:58:22;101952.31;;;25.07;41.91
61554;BME280;47425;51.976;5.326;2022-07-23T09:00:48;101952.00;;;25.12;41.89
61554;BME280;47425;51.976;5.326;2022-07-23T09:03:18;101952.47;;;25.19;41.53
61554;BME280;47425;51.976;5.326;2022-07-23T09:05:46;101954.19;;;25.34;41.48
61554;BME280;47425;51.976;5.326;2022-07-23T09:08:14;101945.34;;;25.46;41.45
61554;BME280;47425;51.976;5.326;2022-07-23T09:10:43;101944.75;;;25.69;41.34
61554;BME280;47425;51.976;5.326;2022-07-23T09:13:46;101941.88;;;25.72;41.34
61554;BME280;47425;51.976;5.326;2022-07-23T09:16:30;101948.53;;;25.79;40.92
61554;BME280;47425;51.976;5.326;2022-07-23T09:19:01;101939.44;;;25.82;40.85
61554;BME280;47425;51.976;5.326;2022-07-23T09:21:30;101948.59;;;25.92;40.82
61554;BME280;47425;51.976;5.326;2022-07-23T09:24:09;101920.75;;;25.93;40.98
61554;BME280;47425;51.976;5.326;2022-07-23T09:26:41;101902.94;;;25.79;40.96
61554;BME280;47425;51.976;5.326;2022-07-23T09:29:27;101940.16;;;26.11;40.62
61554;BME280;47425;51.976;5.326;2022-07-23T09:31:55;101919.38;;;26.00;40.55
61554;BME280;47425;51.976;5.326;2022-07-23T09:34:23;101957.25;;;26.23;40.36
61554;BME280;47425;51.976;5.326;2022-07-23T09:36:53;101919.75;;;26.08;40.36
61554;BME280;47425;51.976;5.326;2022-07-23T09:39:30;101941.88;;;26.25;40.25
61554;BME280;47425;51.976;5.326;2022-07-23T09:41:57;101955.31;;;26.38;40.58
61554;BME280;47425;51.976;5.326;2022-07-23T09:44:23;101953.59;;;26.37;40.06
61554;BME280;47425;51.976;5.326;2022-07-23T09:46:50;101948.75;;;26.42;39.98
61554;BME280;47425;51.976;5.326;2022-07-23T09:49:22;101955.75;;;26.44;39.88
61554;BME280;47425;51.976;5.326;2022-07-23T09:51:54;101955.63;;;26.46;40.29
61554;BME280;47425;51.976;5.326;2022-07-23T09:54:31;101950.38;;;26.44;40.36
61554;BME280;47425;51.976;5.326;2022-07-23T09:57:02;101964.13;;;26.53;40.29
61554;BME280;47425;51.976;5.326;2022-07-23T09:59:30;101963.88;;;26.56;39.88
61554;BME280;47425;51.976;5.326;2022-07-23T10:01:58;101956.72;;;26.56;40.08
61554;BME280;47425;51.976;5.326;2022-07-23T10:04:25;101953.69;;;26.61;39.79
61554;BME280;47425;51.976;5.326;2022-07-23T10:07:09;101948.41;;;26.59;39.89
61554;BME280;47425;51.976;5.326;2022-07-23T10:09:56;101956.03;;;26.66;39.57
61554;BME280;47425;51.976;5.326;2022-07-23T10:12:54;101957.56;;;26.70;40.48
61554;BME280;47425;51.976;5.326;2022-07-23T10:15:25;101952.09;;;26.71;39.94
61554;BME280;47425;51.976;5.326;2022-07-23T10:17:51;101953.78;;;26.72;40.10
61554;BME280;47425;51.976;5.326;2022-07-23T10:20:17;101954.56;;;26.74;39.68
61554;BME280;47425;51.976;5.326;2022-07-23T10:23:28;101944.75;;;26.73;40.35
61554;BME280;47425;51.976;5.326;2022-07-23T10:31:56;101948.28;;;26.87;40.08
61554;BME280;47425;51.976;5.326;2022-07-23T10:34:52;101939.50;;;26.85;40.10
61554;BME280;47425;51.976;5.326;2022-07-23T10:37:22;101918.66;;;26.75;39.72
61554;BME280;47425;51.976;5.326;2022-07-23T10:40:14;101940.63;;;26.93;39.87
61554;BME280;47425;51.976;5.326;2022-07-23T10:42:41;101950.00;;;27.01;40.03
61554;BME280;47425;51.976;5.326;2022-07-23T10:47:52;101942.34;;;27.07;39.56
61554;BME280;47425;51.976;5.326;2022-07-23T10:58:05;101954.00;;;27.19;39.66
61554;BME280;47425;51.976;5.326;2022-07-23T11:00:33;101954.75;;;27.21;39.71
61554;BME280;47425;51.976;5.326;2022-07-23T11:03:00;101953.66;;;27.24;39.76
61554;BME280;47425;51.976;5.326;2022-07-23T11:05:44;101917.38;;;27.05;39.78
61554;BME280;47425;51.976;5.326;2022-07-23T11:08:16;101921.66;;;27.08;39.41
61554;BME280;47425;51.976;5.326;2022-07-23T11:31:58;101919.13;;;27.30;38.60
61554;BME280;47425;51.976;5.326;2022-07-23T11:34:39;101949.75;;;27.41;38.65
61554;BME280;47425;51.976;5.326;2022-07-23T11:37:09;101951.59;;;27.40;38.69
61554;BME280;47425;51.976;5.326;2022-07-23T11:39:35;101912.44;;;27.23;38.74
61554;BME280;47425;51.976;5.326;2022-07-23T11:42:02;101943.50;;;27.40;38.72
61554;BME280;47425;51.976;5.326;2022-07-23T11:44:34;101945.25;;;27.41;38.69
61554;BME280;47425;51.976;5.326;2022-07-23T11:47:01;101951.25;;;27.45;38.58
61554;BME280;47425;51.976;5.326;2022-07-23T11:49:27;101917.63;;;27.26;38.28
61554;BME280;47425;51.976;5.326;2022-07-23T11:52:13;101943.06;;;27.46;38.45
61554;BME280;47425;51.976;5.326;2022-07-23T11:54:57;101941.09;;;27.49;38.38
61554;BME280;47425;51.976;5.326;2022-07-23T11:57:27;101941.84;;;27.51;37.76
61554;BME280;47425;51.976;5.326;2022-07-23T11:59:57;101943.66;;;27.50;37.73
61554;BME280;47425;51.976;5.326;2022-07-23T12:02:23;101941.09;;;27.49;37.80
61554;BME280;47425;51.976;5.326;2022-07-23T12:04:51;101901.78;;;27.35;37.56
61554;BME280;47425;51.976;5.326;2022-07-23T12:07:31;101939.56;;;27.57;38.01
61554;BME280;47425;51.976;5.326;2022-07-23T12:10:23;101940.16;;;27.61;38.03
61554;BME280;47425;51.976;5.326;2022-07-23T12:12:55;101934.78;;;27.61;37.64
61554;BME280;47425;51.976;5.326;2022-07-23T12:15:27;101933.94;;;27.60;37.48
61554;BME280;47425;51.976;5.326;2022-07-23T12:17:57;101934.78;;;27.61;37.38
61554;BME280;47425;51.976;5.326;2022-07-23T12:20:26;101934.78;;;27.61;37.51
61554;BME280;47425;51.976;5.326;2022-07-23T12:22:55;101928.69;;;27.59;37.94
61554;BME280;47425;51.976;5.326;2022-07-23T12:25:25;101925.22;;;27.57;37.46
61554;BME280;47425;51.976;5.326;2022-07-23T12:30:43;101901.56;;;27.38;38.09
61554;BME280;47425;51.976;5.326;2022-07-23T12:33:12;101926.00;;;27.59;37.94
61554;BME280;47425;51.976;5.326;2022-07-23T12:35:42;101923.31;;;27.59;38.29
61554;BME280;47425;51.976;5.326;2022-07-23T12:38:11;101917.91;;;27.59;37.60
61554;BME280;47425;51.976;5.326;2022-07-23T12:40:43;101917.91;;;27.59;37.75
61554;BME280;47425;51.976;5.326;2022-07-23T12:43:31;101915.22;;;27.59;37.54
61554;BME280;47425;51.976;5.326;2022-07-23T12:46:07;101916.19;;;27.58;38.02
61554;BME280;47425;51.976;5.326;2022-07-23T12:48:39;101912.53;;;27.59;37.84
61554;BME280;47425;51.976;5.326;2022-07-23T12:51:16;101883.25;;;27.43;38.00
61554;BME280;47425;51.976;5.326;2022-07-23T12:53:51;101908.75;;;27.61;37.89
61554;BME280;47425;51.976;5.326;2022-07-23T12:56:22;101915.50;;;27.67;37.65
61554;BME280;47425;51.976;5.326;2022-07-23T12:58:58;101921.72;;;27.68;37.74
61554;BME280;47425;51.976;5.326;2022-07-23T13:01:29;101915.50;;;27.67;37.36
61554;BME280;47425;51.976;5.326;2022-07-23T13:04:13;101917.84;;;27.72;37.69
61554;BME280;47425;51.976;5.326;2022-07-23T13:09:08;101911.00;;;27.79;37.56
61554;BME280;47425;51.976;5.326;2022-07-23T13:11:34;101911.84;;;27.79;37.56
61554;BME280;47425;51.976;5.326;2022-07-23T13:14:02;101912.84;;;27.78;37.47
61554;BME280;47425;51.976;5.326;2022-07-23T13:16:28;101910.25;;;27.77;37.45
61554;BME280;47425;51.976;5.326;2022-07-23T13:18:54;101911.25;;;27.76;37.44
61554;BME280;47425;51.976;5.326;2022-07-23T13:21:21;101899.00;;;27.72;37.74
61554;BME280;47425;51.976;5.326;2022-07-23T13:23:48;101907.47;;;27.78;37.58
61554;BME280;47425;51.976;5.326;2022-07-23T13:26:14;101899.41;;;27.78;37.35
61554;BME280;47425;51.976;5.326;2022-07-23T13:28:39;101904.41;;;27.83;37.18
61554;BME280;47425;51.976;5.326;2022-07-23T13:31:06;101894.16;;;27.88;37.21
61554;BME280;47425;51.976;5.326;2022-07-23T13:33:31;101887.88;;;27.88;37.45
61554;BME280;47425;51.976;5.326;2022-07-23T13:35:57;101897.22;;;27.95;37.23
61554;BME280;47425;51.976;5.326;2022-07-23T13:38:22;101887.69;;;27.91;37.00
61554;BME280;47425;51.976;5.326;2022-07-23T13:40:50;101861.94;;;27.75;36.94
61554;BME280;47425;51.976;5.326;2022-07-23T13:43:18;101894.53;;;27.95;36.71
61554;BME280;47425;51.976;5.326;2022-07-23T13:45:45;101899.78;;;27.96;36.86
61554;BME280;47425;51.976;5.326;2022-07-23T13:48:13;101902.50;;;27.96;37.43
61554;BME280;47425;51.976;5.326;2022-07-23T13:50:39;101865.38;;;27.77;36.99
61554;BME280;47425;51.976;5.326;2022-07-23T13:53:08;101891.84;;;27.95;37.08
61554;BME280;47425;51.976;5.326;2022-07-23T13:55:35;101891.59;;;27.98;37.15
61554;BME280;47425;51.976;5.326;2022-07-23T13:58:02;101895.13;;;27.99;36.81
61554;BME280;47425;51.976;5.326;2022-07-23T14:00:28;101895.25;;;27.97;36.84
61554;BME280;47425;51.976;5.326;2022-07-23T14:02:56;101889.16;;;27.95;36.89
61554;BME280;47425;51.976;5.326;2022-07-23T14:05:21;101893.66;;;27.94;36.71
61554;BME280;47425;51.976;5.326;2022-07-23T14:07:47;101878.84;;;27.89;36.79
61554;BME280;47425;51.976;5.326;2022-07-23T14:10:15;101891.22;;;27.91;36.53
61554;BME280;47425;51.976;5.326;2022-07-23T14:12:41;101888.53;;;27.91;36.35
61554;BME280;47425;51.976;5.326;2022-07-23T14:15:08;101877.13;;;27.88;36.40
61554;BME280;47425;51.976;5.326;2022-07-23T14:17:36;101877.03;;;27.89;36.50
61554;BME280;47425;51.976;5.326;2022-07-23T14:20:02;101881.97;;;28.07;36.21
61554;BME280;47425;51.976;5.326;2022-07-23T14:22:29;101887.72;;;28.02;36.27
61554;BME280;47425;51.976;5.326;2022-07-23T14:24:54;101888.06;;;27.98;36.27
61554;BME280;47425;51.976;5.326;2022-07-23T14:27:22;101857.19;;;27.90;36.32
61554;BME280;47425;51.976;5.326;2022-07-23T14:29:48;101886.97;;;28.00;36.42
61554;BME280;47425;51.976;5.326;2022-07-23T14:32:15;101895.25;;;27.97;36.40
61554;BME280;47425;51.976;5.326;2022-07-23T14:34:40;101886.66;;;27.92;36.62
61554;BME280;47425;51.976;5.326;2022-07-23T14:37:07;101883.38;;;27.88;36.73
61554;BME280;47425;51.976;5.326;2022-07-23T14:39:32;101896.59;;;27.91;36.55
61554;BME280;47425;51.976;5.326;2022-07-23T14:41:58;101857.75;;;27.71;36.46
61554;BME280;47425;51.976;5.326;2022-07-23T14:44:23;101882.75;;;27.85;36.65
61554;BME280;47425;51.976;5.326;2022-07-23T14:46:48;101889.63;;;27.89;36.63
61554;BME280;47425;51.976;5.326;2022-07-23T14:49:15;101887.88;;;27.88;36.79
61554;BME280;47425;51.976;5.326;2022-07-23T14:51:41;101875.66;;;27.84;37.09
61554;BME280;47425;51.976;5.326;2022-07-23T14:54:07;101889.63;;;27.89;36.56
61554;BME280;47425;51.976;5.326;2022-07-23T14:56:34;101885.44;;;27.85;36.74
61554;BME280;47425;51.976;5.326;2022-07-23T14:59:02;101887.16;;;27.86;36.97
61554;BME280;47425;51.976;5.326;2022-07-23T15:01:28;101881.03;;;27.84;36.91
61554;BME280;47425;51.976;5.326;2022-07-23T15:03:53;101883.72;;;27.84;36.79
61554;BME280;47425;51.976;5.326;2022-07-23T15:06:20;101887.41;;;27.83;36.77
61554;BME280;47425;51.976;5.326;2022-07-23T15:08:45;101890.31;;;27.79;36.59
61554;BME280;47425;51.976;5.326;2022-07-23T15:11:11;101872.69;;;27.75;36.68
61554;BME280;47425;51.976;5.326;2022-07-23T15:13:38;101879.16;;;27.73;36.83
61554;BME280;47425;51.976;5.326;2022-07-23T15:16:04;101880.91;;;27.74;36.87
61554;BME280;47425;51.976;5.326;2022-07-23T15:18:30;101887.13;;;27.74;36.86
61554;BME280;47425;51.976;5.326;2022-07-23T15:20:56;101879.06;;;27.74;36.84
61554;BME280;47425;51.976;5.326;2022-07-23T15:23:23;101873.06;;;27.71;36.80
61554;BME280;47425;51.976;5.326;2022-07-23T15:25:48;101877.25;;;27.75;37.08
61554;BME280;47425;51.976;5.326;2022-07-23T15:28:14;101863.28;;;27.70;37.14
61554;BME280;47425;51.976;5.326;2022-07-23T15:30:39;101874.66;;;27.73;37.14
61554;BME280;47425;51.976;5.326;2022-07-23T15:33:06;101862.31;;;27.71;37.10
61554;BME280;47425;51.976;5.326;2022-07-23T15:35:32;101870.25;;;27.72;36.78
61554;BME280;47425;51.976;5.326;2022-07-23T15:37:57;101876.59;;;27.71;36.94
61554;BME280;47425;51.976;5.326;2022-07-23T15:40:24;101867.91;;;27.68;37.25
61554;BME280;47425;51.976;5.326;2022-07-23T15:42:50;101870.97;;;27.63;36.77
61554;BME280;47425;51.976;5.326;2022-07-23T15:45:16;101870.44;;;27.58;37.05
61554;BME280;47425;51.976;5.326;2022-07-23T15:47:41;101865.06;;;27.58;36.66
61554;BME280;47425;51.976;5.326;2022-07-23T15:50:08;101866.91;;;27.57;37.08
61554;BME280;47425;51.976;5.326;2022-07-23T15:52:35;101862.88;;;27.52;36.71
61554;BME280;47425;51.976;5.326;2022-07-23T15:55:02;101872.50;;;27.54;36.77
61554;BME280;47425;51.976;5.326;2022-07-23T15:57:28;101860.50;;;27.47;37.17
61554;BME280;47425;51.976;5.326;2022-07-23T15:59:54;101863.66;;;27.41;36.62
61554;BME280;47425;51.976;5.326;2022-07-23T16:02:22;101870.75;;;27.42;36.76
61554;BME280;47425;51.976;5.326;2022-07-23T16:04:47;101865.75;;;27.37;36.81
61554;BME280;47425;51.976;5.326;2022-07-23T16:07:14;101862.19;;;27.37;36.93
61554;BME280;47425;51.976;5.326;2022-07-23T16:09:39;101860.44;;;27.36;37.24
61554;BME280;47425;51.976;5.326;2022-07-23T16:12:05;101860.44;;;27.36;37.23
61554;BME280;47425;51.976;5.326;2022-07-23T16:14:30;101858.72;;;27.35;37.23
61554;BME280;47425;51.976;5.326;2022-07-23T16:16:57;101858.72;;;27.35;37.37
61554;BME280;47425;51.976;5.326;2022-07-23T16:19:22;101856.03;;;27.35;37.03
61554;BME280;47425;51.976;5.326;2022-07-23T16:21:48;101853.47;;;27.33;37.67
61554;BME280;47425;51.976;5.326;2022-07-23T16:24:14;101823.44;;;27.15;36.95
61554;BME280;47425;51.976;5.326;2022-07-23T16:26:40;101850.78;;;27.33;37.33
61554;BME280;47425;51.976;5.326;2022-07-23T16:29:05;101838.44;;;27.30;37.45
61554;BME280;47425;51.976;5.326;2022-07-23T16:31:32;101848.72;;;27.37;37.30
61554;BME280;47425;51.976;5.326;2022-07-23T16:33:57;101842.25;;;27.39;37.45
61554;BME280;47425;51.976;5.326;2022-07-23T16:36:22;101837.63;;;27.41;37.62
61554;BME280;47425;51.976;5.326;2022-07-23T16:38:48;101838.84;;;27.37;37.54
61554;BME280;47425;51.976;5.326;2022-07-23T16:41:14;101843.03;;;27.41;37.45
61554;BME280;47425;51.976;5.326;2022-07-23T16:43:40;101841.28;;;27.40;37.78
61554;BME280;47425;51.976;5.326;2022-07-23T16:46:05;101840.44;;;27.40;37.27
61554;BME280;47425;51.976;5.326;2022-07-23T16:48:33;101823.56;;;27.38;37.19
61554;BME280;47425;51.976;5.326;2022-07-23T16:50:58;101836.16;;;27.37;37.93
61554;BME280;47425;51.976;5.326;2022-07-23T16:53:24;101832.69;;;27.35;37.64
61554;BME280;47425;51.976;5.326;2022-07-23T16:55:49;101824.00;;;27.32;37.93
61554;BME280;47425;51.976;5.326;2022-07-23T16:58:16;101823.75;;;27.35;38.12
61554;BME280;47425;51.976;5.326;2022-07-23T17:00:41;101822.16;;;27.32;37.91
61554;BME280;47425;51.976;5.326;2022-07-23T17:03:07;101803.41;;;27.19;37.89
61554;BME280;47425;51.976;5.326;2022-07-23T17:05:33;101830.00;;;27.35;38.01
61554;BME280;47425;51.976;5.326;2022-07-23T17:08:03;101830.00;;;27.35;37.31
61554;BME280;47425;51.976;5.326;2022-07-23T17:10:28;101823.25;;;27.29;37.67
61554;BME280;47425;51.976;5.326;2022-07-23T17:12:54;101833.03;;;27.30;37.18
61554;BME280;47425;51.976;5.326;2022-07-23T17:15:21;101830.69;;;27.26;37.29
61554;BME280;47425;51.976;5.326;2022-07-23T17:17:46;101814.53;;;27.15;37.79
61554;BME280;47425;51.976;5.326;2022-07-23T17:20:15;101835.22;;;27.25;37.50
61554;BME280;47425;51.976;5.326;2022-07-23T17:22:41;101813.16;;;27.09;37.66
61554;BME280;47425;51.976;5.326;2022-07-23T17:25:10;101839.63;;;27.26;37.51
61554;BME280;47425;51.976;5.326;2022-07-23T17:27:40;101811.31;;;27.09;37.41
61554;BME280;47425;51.976;5.326;2022-07-23T17:30:06;101846.94;;;27.24;36.85
61554;BME280;47425;51.976;5.326;2022-07-23T17:32:52;101849.44;;;27.27;37.23
61554;BME280;47425;51.976;5.326;2022-07-23T17:35:18;101842.44;;;27.25;37.64
61554;BME280;47425;51.976;5.326;2022-07-23T17:37:44;101850.50;;;27.25;37.40
61554;BME280;47425;51.976;5.326;2022-07-23T17:40:09;101843.66;;;27.21;37.20
61554;BME280;47425;51.976;5.326;2022-07-23T17:42:36;101828.28;;;27.10;37.55
61554;BME280;47425;51.976;5.326;2022-07-23T17:45:03;101847.19;;;27.21;37.83
61554;BME280;47425;51.976;5.326;2022-07-23T17:47:29;101848.16;;;27.20;37.66
61554;BME280;47425;51.976;5.326;2022-07-23T17:49:55;101850.13;;;27.18;37.50
61554;BME280;47425;51.976;5.326;2022-07-23T17:52:22;101839.81;;;27.12;37.32
61554;BME280;47425;51.976;5.326;2022-07-23T17:54:47;101838.84;;;27.13;37.28
61554;BME280;47425;51.976;5.326;2022-07-23T17:57:12;101837.13;;;27.12;38.55
61554;BME280;47425;51.976;5.326;2022-07-23T17:59:39;101845.94;;;27.14;38.40
61554;BME280;47425;51.976;5.326;2022-07-23T18:02:04;101845.81;;;27.16;38.46
61554;BME280;47425;51.976;5.326;2022-07-23T18:04:30;101811.28;;;26.98;38.38
61554;BME280;47425;51.976;5.326;2022-07-23T18:06:55;101814.19;;;26.95;38.49
61554;BME280;47425;51.976;5.326;2022-07-23T18:09:22;101822.13;;;26.96;39.12
61554;BME280;47425;51.976;5.326;2022-07-23T18:11:47;101845.19;;;27.12;39.18
61554;BME280;47425;51.976;5.326;2022-07-23T18:14:13;101839.69;;;27.13;39.30
61554;BME280;47425;51.976;5.326;2022-07-23T18:16:39;101814.31;;;26.93;38.39
61554;BME280;47425;51.976;5.326;2022-07-23T18:19:05;101847.25;;;27.08;38.68
61554;BME280;47425;51.976;5.326;2022-07-23T18:21:31;101854.56;;;27.06;38.73
61554;BME280;47425;51.976;5.326;2022-07-23T18:23:57;101850.59;;;26.99;38.64
61554;BME280;47425;51.976;5.326;2022-07-23T18:26:23;101847.84;;;27.01;38.84
61554;BME280;47425;51.976;5.326;2022-07-23T18:28:49;101838.91;;;27.00;38.92
61554;BME280;47425;51.976;5.326;2022-07-23T18:31:14;101848.81;;;27.00;38.72
61554;BME280;47425;51.976;5.326;2022-07-23T18:33:42;101837.53;;;26.94;38.97
61554;BME280;47425;51.976;5.326;2022-07-23T18:36:07;101840.22;;;26.94;39.21
61554;BME280;47425;51.976;5.326;2022-07-23T18:38:33;101837.84;;;26.90;39.70
61554;BME280;47425;51.976;5.326;2022-07-23T18:40:58;101852.06;;;26.92;39.58
61554;BME280;47425;51.976;5.326;2022-07-23T18:43:25;101831.09;;;26.84;39.72
61554;BME280;47425;51.976;5.326;2022-07-23T18:45:51;101833.69;;;26.86;39.87
61554;BME280;47425;51.976;5.326;2022-07-23T18:48:16;101831.88;;;26.86;39.51
61554;BME280;47425;51.976;5.326;2022-07-23T18:50:45;101830.59;;;26.79;39.41
61554;BME280;47425;51.976;5.326;2022-07-23T18:53:11;101845.63;;;26.82;39.34
61554;BME280;47425;51.976;5.326;2022-07-23T18:55:38;101832.88;;;26.72;39.48
61554;BME280;47425;51.976;5.326;2022-07-23T18:58:04;101845.22;;;26.75;39.67
61554;BME280;47425;51.976;5.326;2022-07-23T19:00:49;101846.31;;;26.72;39.60
61554;BME280;47425;51.976;5.326;2022-07-23T19:03:15;101841.38;;;26.66;39.80
61554;BME280;47425;51.976;5.326;2022-07-23T19:05:41;101846.75;;;26.66;39.69
61554;BME280;47425;51.976;5.326;2022-07-23T19:08:06;101847.81;;;26.63;39.48
61554;BME280;47425;51.976;5.326;2022-07-23T19:10:35;101843.75;;;26.58;39.98
61554;BME280;47425;51.976;5.326;2022-07-23T19:13:00;101845.69;;;26.56;39.62
61554;BME280;47425;51.976;5.326;2022-07-23T19:15:25;101845.03;;;26.52;39.72
61554;BME280;47425;51.976;5.326;2022-07-23T19:17:51;101813.28;;;26.33;40.20
61554;BME280;47425;51.976;5.326;2022-07-23T19:20:17;101843.66;;;26.46;40.09
61554;BME280;47425;51.976;5.326;2022-07-23T19:22:43;101847.31;;;26.45;40.04
61554;BME280;47425;51.976;5.326;2022-07-23T19:25:08;101839.47;;;26.42;40.16
61554;BME280;47425;51.976;5.326;2022-07-23T19:27:36;101842.41;;;26.39;40.17
61554;BME280;47425;51.976;5.326;2022-07-23T19:30:04;101852.50;;;26.36;40.31
61554;BME280;47425;51.976;5.326;2022-07-23T19:32:30;101847.13;;;26.36;41.10
61554;BME280;47425;51.976;5.326;2022-07-23T19:34:55;101852.06;;;26.42;40.80
61554;BME280;47425;51.976;5.326;2022-07-23T19:37:22;101850.22;;;26.55;40.28
61554;BME280;47425;51.976;5.326;2022-07-23T19:39:49;101842.56;;;26.62;40.43
61554;BME280;47425;51.976;5.326;2022-07-23T19:42:15;101849.63;;;26.76;39.91
61554;BME280;47425;51.976;5.326;2022-07-23T19:44:42;101861.56;;;26.85;40.39
61554;BME280;47425;51.976;5.326;2022-07-23T19:47:07;101859.34;;;26.90;39.97
61554;BME280;47425;51.976;5.326;2022-07-23T19:49:33;101860.75;;;26.95;40.21
61554;BME280;47425;51.976;5.326;2022-07-23T19:51:59;101864.06;;;26.99;39.89
61554;BME280;47425;51.976;5.326;2022-07-23T19:54:26;101862.00;;;27.03;40.07
61554;BME280;47425;51.976;5.326;2022-07-23T19:56:52;101854.78;;;27.03;40.36
61554;BME280;47425;51.976;5.326;2022-07-23T19:59:19;101851.00;;;27.06;39.76
61554;BME280;47425;51.976;5.326;2022-07-23T20:01:45;101856.31;;;27.07;39.83
61554;BME280;47425;51.976;5.326;2022-07-23T20:04:12;101867.66;;;27.11;40.24
61554;BME280;47425;51.976;5.326;2022-07-23T20:06:37;101859.59;;;27.11;40.21
61554;BME280;47425;51.976;5.326;2022-07-23T20:09:04;101856.06;;;27.10;40.41
61554;BME280;47425;51.976;5.326;2022-07-23T20:11:31;101854.75;;;27.16;39.57
61554;BME280;47425;51.976;5.326;2022-07-23T20:13:58;101859.28;;;27.16;39.91
61554;BME280;47425;51.976;5.326;2022-07-23T20:16:23;101864.66;;;27.16;40.21
61554;BME280;47425;51.976;5.326;2022-07-23T20:18:49;101879.47;;;27.21;40.19
61554;BME280;47425;51.976;5.326;2022-07-23T20:21:15;101887.53;;;27.21;40.24
61554;BME280;47425;51.976;5.326;2022-07-23T20:23:42;101884.94;;;27.20;40.20
61554;BME280;47425;51.976;5.326;2022-07-23T20:26:07;101851.13;;;27.04;40.20
61554;BME280;47425;51.976;5.326;2022-07-23T20:28:34;101884.00;;;27.21;40.24
61554;BME280;47425;51.976;5.326;2022-07-23T20:31:00;101873.44;;;27.18;40.26
61554;BME280;47425;51.976;5.326;2022-07-23T20:33:29;101884.72;;;27.23;40.43
61554;BME280;47425;51.976;5.326;2022-07-23T20:35:55;101876.66;;;27.23;40.57
61554;BME280;47425;51.976;5.326;2022-07-23T20:38:21;101868.81;;;27.20;40.65
61554;BME280;47425;51.976;5.326;2022-07-23T20:40:47;101875.69;;;27.24;40.13
61554;BME280;47425;51.976;5.326;2022-07-23T20:43:12;101850.81;;;27.09;40.36
61554;BME280;47425;51.976;5.326;2022-07-23T20:45:38;101862.34;;;27.22;40.43
61554;BME280;47425;51.976;5.326;2022-07-23T20:48:04;101873.72;;;27.26;40.71
61554;BME280;47425;51.976;5.326;2022-07-23T20:50:30;101870.19;;;27.25;40.42
61554;BME280;47425;51.976;5.326;2022-07-23T20:52:56;101867.50;;;27.25;40.79
61554;BME280;47425;51.976;5.326;2022-07-23T20:55:41;101837.56;;;27.06;40.84
61554;BME280;47425;51.976;5.326;2022-07-23T20:58:07;101866.66;;;27.25;40.72
61554;BME280;47425;51.976;5.326;2022-07-23T21:00:33;101868.47;;;27.24;40.65
61554;BME280;47425;51.976;5.326;2022-07-23T21:02:59;101835.53;;;27.09;40.48
61554;BME280;47425;51.976;5.326;2022-07-23T21:05:25;101867.38;;;27.27;40.87
61554;BME280;47425;51.976;5.326;2022-07-23T21:07:50;101867.38;;;27.27;40.75
61554;BME280;47425;51.976;5.326;2022-07-23T21:10:16;101854.03;;;27.25;41.01
61554;BME280;47425;51.976;5.326;2022-07-23T21:12:43;101866.28;;;27.29;40.94
61554;BME280;47425;51.976;5.326;2022-07-23T21:15:09;101855.66;;;27.28;40.91
61554;BME280;47425;51.976;5.326;2022-07-23T21:17:35;101860.91;;;27.29;40.56
61554;BME280;47425;51.976;5.326;2022-07-23T21:20:00;101857.59;;;27.26;40.89
61554;BME280;47425;51.976;5.326;2022-07-23T21:22:27;101875.31;;;27.28;40.29
61554;BME280;47425;51.976;5.326;2022-07-23T21:24:52;101868.69;;;27.21;41.00
61554;BME280;47425;51.976;5.326;2022-07-23T21:27:18;101858.75;;;27.10;41.19
61554;BME280;47425;51.976;5.326;2022-07-23T21:29:44;101865.94;;;27.10;41.27
61554;BME280;47425;51.976;5.326;2022-07-23T21:32:10;101873.50;;;27.05;41.01
61554;BME280;47425;51.976;5.326;2022-07-23T21:34:35;101875.44;;;27.03;41.06
61554;BME280;47425;51.976;5.326;2022-07-23T21:37:01;101873.00;;;27.00;41.28
61554;BME280;47425;51.976;5.326;2022-07-23T21:39:28;101872.34;;;26.96;41.46
61554;BME280;47425;51.976;5.326;2022-07-23T21:41:53;101874.31;;;26.94;41.55